createdAt,value
2023-02-13T00:04:01.354Z,102497.16
2023-02-13T00:09:11.390Z,102500.72
2023-02-13T00:14:17.798Z,102494.69
2023-02-13T00:19:25.756Z,102496.59
2023-02-13T00:24:32.201Z,102486.41
2023-02-13T00:29:38.816Z,102475.25
2023-02-13T00:34:46.821Z,102479.50
2023-02-13T00:39:53.312Z,102485.53
2023-02-13T00:44:59.931Z,102486.44
2023-02-13T00:50:09.337Z,102489.91
2023-02-13T00:55:16.715Z,102482.94
2023-02-13T01:00:23.749Z,102482.22
2023-02-13T01:05:32.053Z,102478.00
2023-02-13T01:10:40.066Z,102482.47
2023-02-13T01:15:48.940Z,102470.44
2023-02-13T01:21:02.524Z,102472.28
2023-02-13T01:26:11.031Z,102474.75
2023-02-13T01:31:17.584Z,102477.50
2023-02-13T01:36:25.675Z,102474.09
2023-02-13T01:41:35.638Z,102480.25
2023-02-13T01:46:45.809Z,102473.31
2023-02-13T01:51:57.293Z,102472.53
2023-02-13T01:57:08.588Z,102463.09
2023-02-13T02:02:16.288Z,102471.72
2023-02-13T02:07:28.493Z,102470.09
2023-02-13T02:12:45.608Z,102468.38
2023-02-13T02:17:52.182Z,102473.63
2023-02-13T02:23:49.536Z,102459.81
2023-02-13T02:29:39.578Z,102464.97
2023-02-13T02:34:58.684Z,102461.50
2023-02-13T02:40:26.693Z,102463.28
2023-02-13T02:45:42.856Z,102470.25
2023-02-13T02:50:59.985Z,102473.69
2023-02-13T02:56:16.875Z,102482.38
2023-02-13T03:01:46.890Z,102475.50
2023-02-13T03:06:57.876Z,102475.63
2023-02-13T03:12:25.750Z,102479.09
2023-02-13T03:17:49.700Z,102479.91
2023-02-13T03:23:14.398Z,102488.69
2023-02-13T03:28:48.816Z,102480.13
2023-02-13T03:34:01.499Z,102487.09
2023-02-13T03:39:17.295Z,102496.53
2023-02-13T03:44:30.770Z,102488.91
2023-02-13T03:49:59.780Z,102486.44
2023-02-13T03:55:31.423Z,102477.75
2023-02-13T04:00:44.771Z,102482.97
2023-02-13T04:05:56.596Z,102470.94
2023-02-13T04:11:16.307Z,102471.81
2023-02-13T04:16:31.147Z,102465.78
2023-02-13T04:21:40.608Z,102477.97
2023-02-13T04:26:48.926Z,102471.88
2023-02-13T04:31:55.303Z,102477.06
2023-02-13T04:37:03.157Z,102483.09
2023-02-13T04:42:11.198Z,102487.47
2023-02-13T04:47:18.076Z,102482.41
2023-02-13T04:52:24.869Z,102478.09
2023-02-13T04:57:33.185Z,102483.22
2023-02-13T05:02:39.783Z,102476.34
2023-02-13T05:07:46.186Z,102482.41
2023-02-13T05:12:53.844Z,102482.47
2023-02-13T05:18:00.185Z,102482.47
2023-02-13T05:23:25.315Z,102479.94
2023-02-13T05:28:51.651Z,102473.84
2023-02-13T05:33:58.366Z,102479.06
2023-02-13T05:39:05.300Z,102484.22
2023-02-13T05:44:14.286Z,102490.38
2023-02-13T05:49:21.429Z,102491.19
2023-02-13T05:54:28.184Z,102491.13
2023-02-13T05:59:35.995Z,102500.59
2023-02-13T06:04:42.521Z,102492.00
2023-02-13T06:09:51.334Z,102481.75
2023-02-13T06:14:59.212Z,102486.91
2023-02-13T06:20:09.522Z,102492.00
2023-02-13T06:25:16.059Z,102499.81
2023-02-13T06:30:24.988Z,102506.69
2023-02-13T06:35:31.564Z,102523.16
2023-02-13T06:40:38.517Z,102517.16
2023-02-13T06:45:47.462Z,102512.00
2023-02-13T06:50:53.957Z,102518.88
2023-02-13T06:56:00.717Z,102518.13
2023-02-13T07:01:08.814Z,102515.56
2023-02-13T07:06:21.222Z,102512.13
2023-02-13T07:11:31.931Z,102515.56
2023-02-13T07:16:41.783Z,102515.69
2023-02-13T07:21:48.195Z,102515.78
2023-02-13T07:26:54.558Z,102518.47
2023-02-13T07:32:03.696Z,102516.88
2023-02-13T07:37:12.103Z,102521.31
2023-02-13T07:42:18.634Z,102516.19
2023-02-13T07:47:26.410Z,102520.69
2023-02-13T07:52:34.466Z,102512.97
2023-02-13T07:57:41.271Z,102510.34
2023-02-13T08:02:49.335Z,102513.03
2023-02-13T08:07:55.754Z,102513.03
2023-02-13T08:13:02.520Z,102504.34
2023-02-13T08:18:10.148Z,102511.22
2023-02-13T08:23:16.632Z,102503.50
2023-02-13T08:28:23.823Z,102491.69
2023-02-13T08:33:32.535Z,102505.53
2023-02-13T08:43:50.912Z,102495.44
2023-02-13T08:48:58.853Z,102493.69
2023-02-13T08:54:05.425Z,102488.47
2023-02-13T08:59:11.675Z,102491.81
2023-02-13T09:04:19.885Z,102487.56
2023-02-13T09:09:26.308Z,102488.34
2023-02-13T09:14:33.941Z,102490.16
2023-02-13T09:19:41.663Z,102485.84
2023-02-13T09:24:47.994Z,102482.44
2023-02-13T09:29:54.487Z,102487.63
2023-02-13T09:35:02.388Z,102485.22
2023-02-13T09:40:26.533Z,102483.50
2023-02-13T09:45:32.949Z,102469.81
2023-02-13T09:50:41.376Z,102481.00
2023-02-13T09:55:54.059Z,102484.47
2023-02-13T10:01:03.708Z,102481.91
2023-02-13T10:06:21.590Z,102478.47
2023-02-13T10:12:10.180Z,102491.50
2023-02-13T10:17:23.706Z,102495.03
2023-02-13T10:22:36.242Z,102492.56
2023-02-13T10:27:48.657Z,102487.50
2023-02-13T10:33:21.876Z,102485.00
2023-02-13T10:38:33.419Z,102469.53
2023-02-13T10:43:53.998Z,102465.22
2023-02-13T10:49:38.988Z,102453.28
2023-02-13T10:55:08.907Z,102450.78
2023-02-13T11:00:26.871Z,102440.50
2023-02-13T11:05:39.335Z,102448.28
2023-02-13T11:10:49.356Z,102448.28
2023-02-13T11:16:06.132Z,102437.97
2023-02-13T11:21:18.642Z,102441.53
2023-02-13T11:26:34.507Z,102429.63
2023-02-13T11:31:41.034Z,102427.16
2023-02-13T11:36:47.676Z,102422.97
2023-02-13T11:41:55.757Z,102428.22
2023-02-13T11:47:04.499Z,102422.41
2023-02-13T11:52:26.552Z,102425.38
2023-02-13T11:57:36.959Z,102409.34
2023-02-13T12:02:51.070Z,102409.66
2023-02-13T12:08:02.975Z,102392.53
2023-02-13T12:13:23.539Z,102382.38
2023-02-13T12:18:36.950Z,102371.28
2023-02-13T12:23:51.432Z,102383.63
2023-02-13T12:29:36.340Z,102364.72
2023-02-13T12:35:32.120Z,102374.19
2023-02-13T12:41:05.617Z,102375.09
2023-02-13T12:46:22.213Z,102365.75
2023-02-13T12:51:43.418Z,102354.47
2023-02-13T12:57:20.272Z,102344.97
2023-02-13T13:03:03.321Z,102339.78
2023-02-13T13:08:31.150Z,102328.47
2023-02-13T13:13:51.563Z,102325.88
2023-02-13T13:19:13.126Z,102319.84
2023-02-13T13:24:52.181Z,102299.97
2023-02-13T13:30:01.134Z,102305.94
2023-02-13T13:35:16.101Z,102309.31
2023-02-13T13:40:39.757Z,102311.91
2023-02-13T13:45:54.000Z,102330.94
2023-02-13T13:51:02.584Z,102326.63
2023-02-13T13:56:10.213Z,102324.91
2023-02-13T14:01:30.981Z,102310.19
2023-02-13T14:07:23.597Z,102322.16
2023-02-13T14:12:50.237Z,102322.16
2023-02-13T14:17:57.840Z,102303.09
2023-02-13T14:23:37.322Z,102295.31
2023-02-13T14:28:56.756Z,102305.66
2023-02-13T14:34:09.076Z,102302.25
2023-02-13T14:39:28.542Z,102316.13
2023-02-13T14:44:44.931Z,102298.88
2023-02-13T14:49:53.374Z,102313.56
2023-02-13T14:55:04.869Z,102310.94
2023-02-13T15:00:29.357Z,102300.59
2023-02-13T15:05:37.907Z,102313.47
2023-02-13T15:10:50.414Z,102297.91
2023-02-13T15:16:00.750Z,102270.22
2023-02-13T15:21:07.988Z,102263.25
2023-02-13T15:26:24.409Z,102249.41
2023-02-13T15:31:35.240Z,102261.44
2023-02-13T15:36:44.008Z,102264.00
2023-02-13T15:41:56.184Z,102257.91
2023-02-13T15:47:09.392Z,102257.84
2023-02-13T15:52:22.626Z,102278.50
2023-02-13T15:57:31.783Z,102299.19
2023-02-13T16:02:48.187Z,102301.72
2023-02-13T16:08:00.150Z,102300.84
2023-02-13T16:13:18.891Z,102294.72
2023-02-13T16:18:28.378Z,102291.19
2023-02-13T16:23:36.008Z,102285.13
2023-02-13T16:28:50.072Z,102285.06
2023-02-13T16:33:58.244Z,102291.09
2023-02-13T16:39:21.722Z,102294.47
2023-02-13T16:44:40.724Z,102309.91
2023-02-13T16:49:56.810Z,102317.72
2023-02-13T16:55:07.578Z,102314.22
2023-02-13T17:00:29.369Z,102309.00
2023-02-13T17:05:37.549Z,102309.81
2023-02-13T17:11:03.280Z,102314.09
2023-02-13T17:16:14.806Z,102305.41
2023-02-13T17:21:26.606Z,102302.81
2023-02-13T17:26:36.713Z,102301.06
2023-02-13T17:31:50.275Z,102293.28
2023-02-13T17:37:01.012Z,102292.38
2023-02-13T17:42:13.936Z,102294.09
2023-02-13T17:47:24.816Z,102293.16
2023-02-13T17:52:36.330Z,102303.47
2023-02-13T17:57:44.594Z,102311.16
2023-02-13T18:02:54.915Z,102324.97
2023-02-13T18:08:05.217Z,102325.81
2023-02-13T18:13:15.408Z,102340.44
2023-02-13T18:18:27.098Z,102353.38
2023-02-13T18:23:39.030Z,102374.03
2023-02-13T18:28:47.437Z,102370.53
2023-02-13T18:33:58.781Z,102360.94
2023-02-13T18:39:12.443Z,102354.06
2023-02-13T18:44:28.423Z,102364.41
2023-02-13T18:49:40.456Z,102354.88
2023-02-13T18:54:49.176Z,102356.56
2023-02-13T18:59:58.584Z,102360.84
2023-02-13T19:05:13.805Z,102368.56
2023-02-13T19:10:24.059Z,102354.72
2023-02-13T19:15:32.760Z,102362.47
2023-02-13T19:20:44.836Z,102360.66
2023-02-13T19:25:59.762Z,102356.34
2023-02-13T19:31:15.151Z,102361.53
2023-02-13T19:36:29.600Z,102384.78
2023-02-13T19:41:41.462Z,102399.44
2023-02-13T19:46:56.055Z,102390.75
2023-02-13T19:52:07.939Z,102392.47
2023-02-13T19:57:19.156Z,102392.41
2023-02-13T20:02:29.459Z,102389.78
2023-02-13T20:07:48.549Z,102396.66
2023-02-13T20:13:01.563Z,102397.53
2023-02-13T20:18:11.406Z,102399.25
2023-02-13T20:23:24.402Z,102404.44
2023-02-13T20:28:35.417Z,102397.44
2023-02-13T20:33:45.773Z,102406.91
2023-02-13T20:39:01.059Z,102391.41
2023-02-13T20:44:15.373Z,102397.41
2023-02-13T20:49:27.013Z,102399.91
2023-02-13T20:54:39.554Z,102403.34
2023-02-13T20:59:49.853Z,102404.16
2023-02-13T21:04:59.416Z,102405.00
2023-02-13T21:10:12.846Z,102392.06
2023-02-13T21:15:25.170Z,102395.50
2023-02-13T21:20:35.122Z,102397.25
2023-02-13T21:25:47.243Z,102383.44
2023-02-13T21:30:58.410Z,102402.38
2023-02-13T21:36:10.408Z,102398.00
2023-02-13T21:41:20.431Z,102397.97
2023-02-13T21:46:31.025Z,102393.69
2023-02-13T21:51:38.912Z,102389.38
2023-02-13T21:56:47.640Z,102385.84
2023-02-13T22:01:55.248Z,102384.13
2023-02-13T22:07:02.238Z,102386.66
2023-02-13T22:12:10.581Z,102387.53
2023-02-13T22:17:17.237Z,102385.00
2023-02-13T22:22:25.817Z,102382.38
2023-02-13T22:27:34.132Z,102390.97
2023-02-13T22:32:41.903Z,102387.47
2023-02-13T22:37:48.268Z,102391.84
2023-02-13T22:42:56.331Z,102386.66
2023-02-13T22:48:03.035Z,102396.13
2023-02-13T22:53:09.663Z,102384.88
2023-02-13T22:58:17.879Z,102382.31
2023-02-13T23:03:25.144Z,102384.88
2023-02-13T23:08:32.494Z,102382.28
2023-02-13T23:13:40.474Z,102385.72
2023-02-13T23:18:51.595Z,102386.56
2023-02-13T23:23:58.010Z,102391.75
2023-02-13T23:29:06.340Z,102390.00
2023-02-13T23:34:13.139Z,102386.50
2023-02-13T23:39:21.476Z,102385.59
2023-02-13T23:44:29.464Z,102386.44
2023-02-13T23:49:36.025Z,102387.34
2023-02-13T23:54:43.144Z,102381.28
2023-02-13T23:59:52.707Z,102388.97
